sensor_id;sensor_type;location;lat;lon;timestamp;pressure;altitude;pressure_sealevel;temperature;humidity
58698;BME280;44475;53.206;-6.106;2023-03-20T00:01:21;101071.50;;;22.38;50.25
58698;BME280;44475;53.206;-6.106;2023-03-20T00:03:49;101045.31;;;22.35;50.07
58698;BME280;44475;53.206;-6.106;2023-03-20T00:06:18;101055.44;;;22.68;49.62
58698;BME280;44475;53.206;-6.106;2023-03-20T00:08:47;101054.94;;;22.86;49.32
58698;BME280;44475;53.206;-6.106;2023-03-20T00:11:32;101055.00;;;22.51;49.88
58698;BME280;44475;53.206;-6.106;2023-03-20T00:14:02;101066.91;;;22.50;49.89
58698;BME280;44475;53.206;-6.106;2023-03-20T00:16:35;101062.28;;;22.62;49.75
58698;BME280;44475;53.206;-6.106;2023-03-20T00:19:03;101060.94;;;22.56;49.94
58698;BME280;44475;53.206;-6.106;2023-03-20T00:21:30;101063.44;;;22.36;50.13
58698;BME280;44475;53.206;-6.106;2023-03-20T00:24:00;101060.16;;;22.66;49.94
58698;BME280;44475;53.206;-6.106;2023-03-20T00:26:32;101060.56;;;22.49;50.26
58698;BME280;44475;53.206;-6.106;2023-03-20T00:28:59;101061.91;;;22.55;49.74
58698;BME280;44475;53.206;-6.106;2023-03-20T00:31:32;101064.53;;;22.45;50.01
58698;BME280;44475;53.206;-6.106;2023-03-20T00:34:00;101062.16;;;22.52;49.90
58698;BME280;44475;53.206;-6.106;2023-03-20T00:36:27;101062.81;;;22.44;50.13
58698;BME280;44475;53.206;-6.106;2023-03-20T00:38:54;101060.59;;;22.26;50.55
58698;BME280;44475;53.206;-6.106;2023-03-20T00:41:30;101065.28;;;22.36;50.81
58698;BME280;44475;53.206;-6.106;2023-03-20T00:44:37;101066.03;;;22.38;50.22
58698;BME280;44475;53.206;-6.106;2023-03-20T00:47:20;101055.38;;;22.35;51.01
58698;BME280;44475;53.206;-6.106;2023-03-20T00:49:50;101060.69;;;22.48;50.61
58698;BME280;44475;53.206;-6.106;2023-03-20T00:52:19;101058.84;;;22.48;49.98
58698;BME280;44475;53.206;-6.106;2023-03-20T00:54:45;101062.22;;;22.40;50.39
58698;BME280;44475;53.206;-6.106;2023-03-20T00:57:16;101063.44;;;22.36;50.42
58698;BME280;44475;53.206;-6.106;2023-03-20T01:02:46;101051.28;;;22.29;50.59
58698;BME280;44475;53.206;-6.106;2023-03-20T01:05:13;101047.94;;;22.25;50.58
58698;BME280;44475;53.206;-6.106;2023-03-20T01:07:39;101057.09;;;22.24;50.94
58698;BME280;44475;53.206;-6.106;2023-03-20T01:10:10;101048.56;;;22.29;50.87
58698;BME280;44475;53.206;-6.106;2023-03-20T01:12:39;101054.38;;;22.24;51.08
58698;BME280;44475;53.206;-6.106;2023-03-20T01:15:22;101051.66;;;22.24;50.95
58698;BME280;44475;53.206;-6.106;2023-03-20T01:17:50;101049.53;;;22.51;50.62
58698;BME280;44475;53.206;-6.106;2023-03-20T01:20:28;101045.44;;;22.34;50.99
58698;BME280;44475;53.206;-6.106;2023-03-20T01:22:59;101040.50;;;22.39;50.34
58698;BME280;44475;53.206;-6.106;2023-03-20T01:25:26;101049.16;;;22.09;51.25
58698;BME280;44475;53.206;-6.106;2023-03-20T01:27:54;101041.13;;;22.19;51.50
58698;BME280;44475;53.206;-6.106;2023-03-20T01:30:29;101038.00;;;22.24;50.83
58698;BME280;44475;53.206;-6.106;2023-03-20T01:32:57;101060.06;;;22.21;51.19
58698;BME280;44475;53.206;-6.106;2023-03-20T01:35:28;101053.38;;;22.14;51.72
58698;BME280;44475;53.206;-6.106;2023-03-20T01:38:20;101043.47;;;22.24;51.14
58698;BME280;44475;53.206;-6.106;2023-03-20T01:40:54;101040.59;;;22.37;51.08
58698;BME280;44475;53.206;-6.106;2023-03-20T01:43:24;101035.78;;;22.29;50.99
58698;BME280;44475;53.206;-6.106;2023-03-20T01:56:24;101029.06;;;22.45;50.79
58698;BME280;44475;53.206;-6.106;2023-03-20T01:58:59;101040.72;;;22.47;50.99
58698;BME280;44475;53.206;-6.106;2023-03-20T02:01:30;101041.34;;;22.51;50.67
58698;BME280;44475;53.206;-6.106;2023-03-20T02:03:59;101040.19;;;22.54;50.83
58698;BME280;44475;53.206;-6.106;2023-03-20T02:06:38;101038.09;;;22.57;50.74
58698;BME280;44475;53.206;-6.106;2023-03-20T02:09:14;101044.44;;;22.58;50.57
58698;BME280;44475;53.206;-6.106;2023-03-20T02:11:43;101032.63;;;22.57;50.50
58698;BME280;44475;53.206;-6.106;2023-03-20T02:14:12;101016.34;;;22.67;50.10
58698;BME280;44475;53.206;-6.106;2023-03-20T02:16:53;101018.84;;;22.59;50.38
58698;BME280;44475;53.206;-6.106;2023-03-20T02:23:05;101001.81;;;22.67;50.32
58698;BME280;44475;53.206;-6.106;2023-03-20T02:29:42;101017.22;;;22.68;50.12
58698;BME280;44475;53.206;-6.106;2023-03-20T02:35:18;101007.91;;;22.70;49.78
58698;BME280;44475;53.206;-6.106;2023-03-20T02:48:52;100983.81;;;22.64;50.20
58698;BME280;44475;53.206;-6.106;2023-03-20T02:51:38;100991.03;;;22.65;49.94
58698;BME280;44475;53.206;-6.106;2023-03-20T02:54:46;100983.94;;;22.63;49.94
58698;BME280;44475;53.206;-6.106;2023-03-20T02:57:28;100985.88;;;22.50;50.39
58698;BME280;44475;53.206;-6.106;2023-03-20T03:02:49;100982.31;;;22.72;49.74
58698;BME280;44475;53.206;-6.106;2023-03-20T03:05:22;100982.47;;;22.58;50.24
58698;BME280;44475;53.206;-6.106;2023-03-20T03:07:52;100977.25;;;22.67;49.86
58698;BME280;44475;53.206;-6.106;2023-03-20T03:10:30;100971.03;;;22.65;49.82
58698;BME280;44475;53.206;-6.106;2023-03-20T03:13:00;100965.56;;;22.65;49.63
58698;BME280;44475;53.206;-6.106;2023-03-20T03:15:46;100969.16;;;22.65;49.64
58698;BME280;44475;53.206;-6.106;2023-03-20T03:18:18;100974.25;;;22.70;49.89
58698;BME280;44475;53.206;-6.106;2023-03-20T03:20:47;100963.72;;;22.65;49.63
58698;BME280;44475;53.206;-6.106;2023-03-20T03:23:26;100977.56;;;22.74;49.80
58698;BME280;44475;53.206;-6.106;2023-03-20T03:25:54;100955.31;;;22.57;49.59
58698;BME280;44475;53.206;-6.106;2023-03-20T03:28:33;100950.06;;;22.65;49.56
58698;BME280;44475;53.206;-6.106;2023-03-20T03:31:07;100945.94;;;22.71;49.47
58698;BME280;44475;53.206;-6.106;2023-03-20T03:33:40;100941.53;;;22.58;49.70
58698;BME280;44475;53.206;-6.106;2023-03-20T03:39:15;100944.59;;;22.65;49.63
58698;BME280;44475;53.206;-6.106;2023-03-20T03:42:10;100945.59;;;22.64;49.43
58698;BME280;44475;53.206;-6.106;2023-03-20T03:44:56;100951.88;;;22.76;49.36
58698;BME280;44475;53.206;-6.106;2023-03-20T03:47:35;100959.38;;;22.63;49.77
58698;BME280;44475;53.206;-6.106;2023-03-20T03:52:51;100962.47;;;22.69;49.58
58698;BME280;44475;53.206;-6.106;2023-03-20T03:55:25;100966.31;;;22.67;49.45
58698;BME280;44475;53.206;-6.106;2023-03-20T03:58:39;100970.53;;;22.71;49.40
58698;BME280;44475;53.206;-6.106;2023-03-20T04:01:09;100973.59;;;22.78;49.26
58698;BME280;44475;53.206;-6.106;2023-03-20T04:03:46;100974.38;;;22.68;49.27
58698;BME280;44475;53.206;-6.106;2023-03-20T04:06:15;100968.50;;;22.73;49.07
58698;BME280;44475;53.206;-6.106;2023-03-20T04:08:43;100978.72;;;22.71;49.27
58698;BME280;44475;53.206;-6.106;2023-03-20T04:11:21;100970.91;;;22.66;49.23
58698;BME280;44475;53.206;-6.106;2023-03-20T04:13:50;100978.97;;;22.68;49.39
58698;BME280;44475;53.206;-6.106;2023-03-20T04:19:16;100964.03;;;22.84;49.11
58698;BME280;44475;53.206;-6.106;2023-03-20T04:21:44;100971.97;;;22.87;48.89
58698;BME280;44475;53.206;-6.106;2023-03-20T04:24:11;100968.25;;;22.76;48.97
58698;BME280;44475;53.206;-6.106;2023-03-20T04:26:38;100958.44;;;22.85;48.90
58698;BME280;44475;53.206;-6.106;2023-03-20T04:29:05;100972.03;;;22.64;49.41
58698;BME280;44475;53.206;-6.106;2023-03-20T04:31:48;100977.25;;;22.67;49.33
58698;BME280;44475;53.206;-6.106;2023-03-20T04:34:29;100978.56;;;22.73;49.46
58698;BME280;44475;53.206;-6.106;2023-03-20T04:37:27;100984.19;;;22.71;48.96
58698;BME280;44475;53.206;-6.106;2023-03-20T04:40:04;100977.59;;;22.62;49.13
58698;BME280;44475;53.206;-6.106;2023-03-20T04:42:35;100971.16;;;22.63;49.43
58698;BME280;44475;53.206;-6.106;2023-03-20T04:45:06;100979.22;;;22.65;49.35
58698;BME280;44475;53.206;-6.106;2023-03-20T04:47:35;100980.47;;;22.72;48.99
58698;BME280;44475;53.206;-6.106;2023-03-20T04:50:01;100978.84;;;22.69;49.02
58698;BME280;44475;53.206;-6.106;2023-03-20T04:52:29;100974.38;;;22.68;49.25
58698;BME280;44475;53.206;-6.106;2023-03-20T04:54:59;100978.56;;;22.73;49.07
58698;BME280;44475;53.206;-6.106;2023-03-20T04:57:29;100982.56;;;22.68;49.30
58698;BME280;44475;53.206;-6.106;2023-03-20T04:59:57;100981.47;;;22.71;48.91
58698;BME280;44475;53.206;-6.106;2023-03-20T05:02:24;100983.44;;;22.69;49.32
58698;BME280;44475;53.206;-6.106;2023-03-20T05:04:52;100980.06;;;22.77;48.76
58698;BME280;44475;53.206;-6.106;2023-03-20T05:07:22;100992.22;;;22.73;49.14
58698;BME280;44475;53.206;-6.106;2023-03-20T05:09:54;100990.53;;;22.72;48.86
58698;BME280;44475;53.206;-6.106;2023-03-20T05:12:22;100986.91;;;22.83;48.85
58698;BME280;44475;53.206;-6.106;2023-03-20T05:15:09;100979.94;;;22.78;48.75
58698;BME280;44475;53.206;-6.106;2023-03-20T05:17:54;100986.25;;;22.79;48.72
58698;BME280;44475;53.206;-6.106;2023-03-20T05:20:44;100981.47;;;22.71;49.15
58698;BME280;44475;53.206;-6.106;2023-03-20T05:23:40;100981.22;;;22.63;49.13
58698;BME280;44475;53.206;-6.106;2023-03-20T05:26:39;100983.31;;;22.70;48.96
58698;BME280;44475;53.206;-6.106;2023-03-20T05:29:08;100974.16;;;22.60;48.88
58698;BME280;44475;53.206;-6.106;2023-03-20T05:31:57;100967.19;;;22.67;49.23
58698;BME280;44475;53.206;-6.106;2023-03-20T05:34:34;100967.81;;;22.71;48.99
58698;BME280;44475;53.206;-6.106;2023-03-20T05:37:21;100953.41;;;22.69;49.08
58698;BME280;44475;53.206;-6.106;2023-03-20T05:39:56;100950.91;;;22.66;49.08
58698;BME280;44475;53.206;-6.106;2023-03-20T05:42:34;100950.91;;;22.66;49.11
58698;BME280;44475;53.206;-6.106;2023-03-20T05:45:22;100953.66;;;22.66;49.23
58698;BME280;44475;53.206;-6.106;2023-03-20T05:48:03;100946.03;;;22.81;48.45
58698;BME280;44475;53.206;-6.106;2023-03-20T05:50:52;100937.81;;;22.59;49.22
58698;BME280;44475;53.206;-6.106;2023-03-20T05:53:39;100951.31;;;22.61;49.32
58698;BME280;44475;53.206;-6.106;2023-03-20T05:56:25;100965.69;;;22.63;49.12
58698;BME280;44475;53.206;-6.106;2023-03-20T05:59:18;100979.72;;;22.70;48.84
58698;BME280;44475;53.206;-6.106;2023-03-20T06:02:00;100974.38;;;22.68;48.71
58698;BME280;44475;53.206;-6.106;2023-03-20T06:04:30;100971.41;;;22.72;48.96
58698;BME280;44475;53.206;-6.106;2023-03-20T06:07:25;100976.38;;;22.66;48.78
58698;BME280;44475;53.206;-6.106;2023-03-20T06:10:01;100976.91;;;22.60;48.96
58698;BME280;44475;53.206;-6.106;2023-03-20T06:12:29;100978.09;;;22.67;49.02
58698;BME280;44475;53.206;-6.106;2023-03-20T06:14:55;100972.66;;;22.67;48.98
58698;BME280;44475;53.206;-6.106;2023-03-20T06:17:22;100978.34;;;22.64;49.02
58698;BME280;44475;53.206;-6.106;2023-03-20T06:19:53;100979.63;;;22.60;49.00
58698;BME280;44475;53.206;-6.106;2023-03-20T06:22:24;100989.66;;;22.71;48.91
58698;BME280;44475;53.206;-6.106;2023-03-20T06:24:51;100991.13;;;22.75;48.73
58698;BME280;44475;53.206;-6.106;2023-03-20T06:27:18;100987.16;;;22.68;49.08
58698;BME280;44475;53.206;-6.106;2023-03-20T06:29:47;100994.63;;;22.66;48.95
58698;BME280;44475;53.206;-6.106;2023-03-20T06:32:17;100994.25;;;22.70;48.47
58698;BME280;44475;53.206;-6.106;2023-03-20T06:34:46;100977.41;;;22.54;49.19
58698;BME280;44475;53.206;-6.106;2023-03-20T06:37:12;100975.63;;;22.64;48.90
58698;BME280;44475;53.206;-6.106;2023-03-20T06:39:39;100973.03;;;22.63;49.04
58698;BME280;44475;53.206;-6.106;2023-03-20T06:42:10;100959.84;;;22.68;49.08
58698;BME280;44475;53.206;-6.106;2023-03-20T06:44:39;100953.66;;;22.66;48.48
58698;BME280;44475;53.206;-6.106;2023-03-20T06:47:25;100961.47;;;22.70;48.66
58698;BME280;44475;53.206;-6.106;2023-03-20T06:49:52;100967.88;;;22.81;48.37
58698;BME280;44475;53.206;-6.106;2023-03-20T06:52:21;100967.16;;;22.79;48.62
58698;BME280;44475;53.206;-6.106;2023-03-20T06:54:57;100970.13;;;22.76;48.39
58698;BME280;44475;53.206;-6.106;2023-03-20T06:57:24;100976.78;;;22.62;48.65
58698;BME280;44475;53.206;-6.106;2023-03-20T06:59:50;100984.91;;;22.73;48.66
58698;BME280;44475;53.206;-6.106;2023-03-20T07:02:17;100988.50;;;22.74;48.50
58698;BME280;44475;53.206;-6.106;2023-03-20T07:04:44;100989.50;;;22.73;48.46
58698;BME280;44475;53.206;-6.106;2023-03-20T07:07:11;101001.91;;;22.77;48.46
58698;BME280;44475;53.206;-6.106;2023-03-20T07:09:37;100995.50;;;22.66;48.48
58698;BME280;44475;53.206;-6.106;2023-03-20T07:12:08;101000.19;;;22.76;48.46
58698;BME280;44475;53.206;-6.106;2023-03-20T07:14:35;100994.34;;;22.80;48.32
58698;BME280;44475;53.206;-6.106;2023-03-20T07:17:04;100981.06;;;22.76;48.26
58698;BME280;44475;53.206;-6.106;2023-03-20T07:19:32;100974.59;;;22.77;48.41
58698;BME280;44475;53.206;-6.106;2023-03-20T07:22:00;100957.59;;;22.73;48.66
58698;BME280;44475;53.206;-6.106;2023-03-20T07:24:31;100969.13;;;22.77;48.57
58698;BME280;44475;53.206;-6.106;2023-03-20T07:26:59;100979.50;;;22.62;49.06
58698;BME280;44475;53.206;-6.106;2023-03-20T07:29:29;100982.81;;;22.65;48.93
58698;BME280;44475;53.206;-6.106;2023-03-20T07:31:57;100982.16;;;22.73;48.67
58698;BME280;44475;53.206;-6.106;2023-03-20T07:34:29;100987.91;;;22.70;48.28
58698;BME280;44475;53.206;-6.106;2023-03-20T07:36:56;100997.09;;;22.69;48.76
58698;BME280;44475;53.206;-6.106;2023-03-20T07:39:23;100992.00;;;22.64;48.78
58698;BME280;44475;53.206;-6.106;2023-03-20T07:42:12;100991.13;;;22.75;48.45
58698;BME280;44475;53.206;-6.106;2023-03-20T07:44:48;100992.72;;;22.89;47.98
58698;BME280;44475;53.206;-6.106;2023-03-20T07:47:15;101004.19;;;22.72;48.48
58698;BME280;44475;53.206;-6.106;2023-03-20T07:49:41;101005.06;;;22.72;48.62
58698;BME280;44475;53.206;-6.106;2023-03-20T07:52:08;101005.88;;;22.84;48.14
58698;BME280;44475;53.206;-6.106;2023-03-20T07:54:34;101007.88;;;22.94;48.13
58698;BME280;44475;53.206;-6.106;2023-03-20T07:57:01;101009.09;;;22.89;47.81
58698;BME280;44475;53.206;-6.106;2023-03-20T07:59:30;101006.25;;;22.91;47.57
58698;BME280;44475;53.206;-6.106;2023-03-20T08:01:57;100995.19;;;22.93;47.74
58698;BME280;44475;53.206;-6.106;2023-03-20T08:04:27;100996.00;;;22.72;48.04
58698;BME280;44475;53.206;-6.106;2023-03-20T08:06:53;100991.59;;;22.92;47.70
58698;BME280;44475;53.206;-6.106;2023-03-20T08:09:19;101015.44;;;22.78;48.17
58698;BME280;44475;53.206;-6.106;2023-03-20T08:11:46;101006.75;;;22.73;48.08
58698;BME280;44475;53.206;-6.106;2023-03-20T08:14:12;101013.22;;;22.84;47.92
58698;BME280;44475;53.206;-6.106;2023-03-20T08:16:39;101021.28;;;22.85;47.95
58698;BME280;44475;53.206;-6.106;2023-03-20T08:19:05;101031.09;;;22.76;48.07
58698;BME280;44475;53.206;-6.106;2023-03-20T08:21:35;101023.03;;;22.75;48.12
58698;BME280;44475;53.206;-6.106;2023-03-20T08:24:02;101018.06;;;22.80;48.08
58698;BME280;44475;53.206;-6.106;2023-03-20T08:26:28;101015.56;;;22.77;48.11
58698;BME280;44475;53.206;-6.106;2023-03-20T08:28:54;101009.84;;;22.80;48.22
58698;BME280;44475;53.206;-6.106;2023-03-20T08:31:21;101010.47;;;22.84;47.90
58698;BME280;44475;53.206;-6.106;2023-03-20T08:33:48;101003.66;;;22.89;47.74
58698;BME280;44475;53.206;-6.106;2023-03-20T08:36:15;101005.63;;;22.76;47.90
58698;BME280;44475;53.206;-6.106;2023-03-20T08:38:47;100998.22;;;22.66;48.33
58698;BME280;44475;53.206;-6.106;2023-03-20T08:41:15;101014.44;;;22.79;48.24
58698;BME280;44475;53.206;-6.106;2023-03-20T08:43:41;101011.84;;;22.89;47.79
58698;BME280;44475;53.206;-6.106;2023-03-20T08:46:08;101016.81;;;22.84;48.04
58698;BME280;44475;53.206;-6.106;2023-03-20T08:48:35;101014.81;;;22.86;47.74
58698;BME280;44475;53.206;-6.106;2023-03-20T08:51:01;101012.59;;;22.80;48.13
58698;BME280;44475;53.206;-6.106;2023-03-20T08:53:28;101011.59;;;22.81;48.13
58698;BME280;44475;53.206;-6.106;2023-03-20T08:55:54;101008.63;;;22.84;47.98
58698;BME280;44475;53.206;-6.106;2023-03-20T08:58:22;101013.38;;;22.70;48.28
58698;BME280;44475;53.206;-6.106;2023-03-20T09:00:48;101009.09;;;22.89;47.73
58698;BME280;44475;53.206;-6.106;2023-03-20T09:03:17;101015.44;;;22.78;48.14
58698;BME280;44475;53.206;-6.106;2023-03-20T09:05:45;101021.41;;;22.84;47.89
58698;BME280;44475;53.206;-6.106;2023-03-20T09:08:12;101029.09;;;22.78;47.91
58698;BME280;44475;53.206;-6.106;2023-03-20T09:10:39;101027.75;;;22.84;47.92
58698;BME280;44475;53.206;-6.106;2023-03-20T09:13:06;101037.19;;;22.68;48.56
58698;BME280;44475;53.206;-6.106;2023-03-20T09:15:34;101040.94;;;22.67;48.22
58698;BME280;44475;53.206;-6.106;2023-03-20T09:18:01;101025.00;;;22.73;48.27
58698;BME280;44475;53.206;-6.106;2023-03-20T09:20:27;101019.81;;;22.69;48.25
58698;BME280;44475;53.206;-6.106;2023-03-20T09:22:54;101013.59;;;22.79;48.00
58698;BME280;44475;53.206;-6.106;2023-03-20T09:25:24;101016.72;;;22.63;48.34
58698;BME280;44475;53.206;-6.106;2023-03-20T09:27:51;101028.47;;;22.75;47.81
58698;BME280;44475;53.206;-6.106;2023-03-20T09:30:21;101030.22;;;22.76;48.09
58698;BME280;44475;53.206;-6.106;2023-03-20T09:32:49;101030.09;;;22.77;48.26
58698;BME280;44475;53.206;-6.106;2023-03-20T09:35:16;101021.91;;;22.89;47.92
58698;BME280;44475;53.206;-6.106;2023-03-20T09:37:43;101027.28;;;22.67;48.39
58698;BME280;44475;53.206;-6.106;2023-03-20T09:40:26;101029.25;;;22.65;48.21
58698;BME280;44475;53.206;-6.106;2023-03-20T09:43:12;101034.69;;;22.77;48.17
58698;BME280;44475;53.206;-6.106;2023-03-20T09:51:18;101030.97;;;22.89;47.86
58698;BME280;44475;53.206;-6.106;2023-03-20T09:53:56;101033.44;;;22.81;47.97
58698;BME280;44475;53.206;-6.106;2023-03-20T09:56:25;101032.22;;;22.85;48.09
58698;BME280;44475;53.206;-6.106;2023-03-20T09:58:57;101025.25;;;22.93;47.96
58698;BME280;44475;53.206;-6.106;2023-03-20T10:01:42;101034.19;;;22.83;47.89
58698;BME280;44475;53.206;-6.106;2023-03-20T10:04:11;101042.16;;;22.86;47.78
58698;BME280;44475;53.206;-6.106;2023-03-20T10:06:37;101037.06;;;22.82;48.10
58698;BME280;44475;53.206;-6.106;2023-03-20T10:09:21;101022.91;;;22.76;48.12
58698;BME280;44475;53.206;-6.106;2023-03-20T10:20:42;101022.28;;;22.84;48.03
58698;BME280;44475;53.206;-6.106;2023-03-20T10:25:57;101029.47;;;22.85;47.56
58698;BME280;44475;53.206;-6.106;2023-03-20T10:28:35;101031.63;;;22.70;48.23
58698;BME280;44475;53.206;-6.106;2023-03-20T10:31:27;101031.09;;;22.76;48.02
58698;BME280;44475;53.206;-6.106;2023-03-20T10:37:09;101027.50;;;22.87;47.96
58698;BME280;44475;53.206;-6.106;2023-03-20T10:39:54;101024.50;;;22.91;47.74
58698;BME280;44475;53.206;-6.106;2023-03-20T10:42:32;101032.59;;;22.80;48.14
58698;BME280;44475;53.206;-6.106;2023-03-20T10:45:25;101023.28;;;22.83;48.11
58698;BME280;44475;53.206;-6.106;2023-03-20T10:47:53;101007.00;;;22.93;47.81
58698;BME280;44475;53.206;-6.106;2023-03-20T10:50:27;101023.53;;;22.68;48.51
58698;BME280;44475;53.206;-6.106;2023-03-20T10:52:55;101027.16;;;22.69;48.56
58698;BME280;44475;53.206;-6.106;2023-03-20T10:55:33;101022.38;;;22.94;48.15
58698;BME280;44475;53.206;-6.106;2023-03-20T10:58:22;101022.16;;;22.86;48.14
58698;BME280;44475;53.206;-6.106;2023-03-20T11:00:50;101015.19;;;22.82;47.96
58698;BME280;44475;53.206;-6.106;2023-03-20T11:03:27;101018.31;;;22.77;48.22
58698;BME280;44475;53.206;-6.106;2023-03-20T11:06:02;101017.44;;;22.88;48.13
58698;BME280;44475;53.206;-6.106;2023-03-20T11:08:34;101009.09;;;22.89;47.73
58698;BME280;44475;53.206;-6.106;2023-03-20T11:11:03;101013.84;;;22.87;48.03
58698;BME280;44475;53.206;-6.106;2023-03-20T11:13:43;101010.34;;;22.85;47.94
58698;BME280;44475;53.206;-6.106;2023-03-20T11:16:29;101004.88;;;22.85;48.10
58698;BME280;44475;53.206;-6.106;2023-03-20T11:19:09;101007.25;;;22.78;47.93
58698;BME280;44475;53.206;-6.106;2023-03-20T11:21:51;101003.66;;;22.89;47.75
58698;BME280;44475;53.206;-6.106;2023-03-20T11:24:40;101003.97;;;22.96;47.85
58698;BME280;44475;53.206;-6.106;2023-03-20T11:27:09;100998.06;;;22.91;47.95
58698;BME280;44475;53.206;-6.106;2023-03-20T11:29:36;101002.84;;;22.99;47.57
58698;BME280;44475;53.206;-6.106;2023-03-20T11:35:27;100990.84;;;22.90;48.10
58698;BME280;44475;53.206;-6.106;2023-03-20T11:38:19;100990.75;;;22.80;47.96
58698;BME280;44475;53.206;-6.106;2023-03-20T11:40:47;100990.97;;;22.88;47.84
58698;BME280;44475;53.206;-6.106;2023-03-20T11:43:19;100988.75;;;22.82;48.15
58698;BME280;44475;53.206;-6.106;2023-03-20T11:45:57;100986.13;;;22.92;47.86
58698;BME280;44475;53.206;-6.106;2023-03-20T11:48:44;100991.94;;;22.99;47.44
58698;BME280;44475;53.206;-6.106;2023-03-20T11:51:16;100984.97;;;22.95;47.53
58698;BME280;44475;53.206;-6.106;2023-03-20T11:56:31;100983.91;;;22.86;48.26
58698;BME280;44475;53.206;-6.106;2023-03-20T11:59:12;100984.41;;;22.91;47.74
58698;BME280;44475;53.206;-6.106;2023-03-20T12:01:49;100974.72;;;22.87;48.10
58698;BME280;44475;53.206;-6.106;2023-03-20T12:07:11;100977.81;;;22.94;47.64
58698;BME280;44475;53.206;-6.106;2023-03-20T12:09:43;100974.66;;;22.98;47.74
58698;BME280;44475;53.206;-6.106;2023-03-20T12:12:38;100955.75;;;23.07;47.12
58698;BME280;44475;53.206;-6.106;2023-03-20T12:20:29;100956.94;;;22.93;47.98
58698;BME280;44475;53.206;-6.106;2023-03-20T12:26:10;100952.47;;;22.92;47.65
58698;BME280;44475;53.206;-6.106;2023-03-20T12:28:55;100962.44;;;22.81;48.24
58698;BME280;44475;53.206;-6.106;2023-03-20T12:34:06;100949.75;;;22.80;47.88
58698;BME280;44475;53.206;-6.106;2023-03-20T12:36:48;100949.00;;;22.89;47.86
58698;BME280;44475;53.206;-6.106;2023-03-20T12:39:20;100952.75;;;22.77;48.27
58698;BME280;44475;53.206;-6.106;2023-03-20T12:45:19;100945.72;;;22.63;48.34
58698;BME280;44475;53.206;-6.106;2023-03-20T12:50:41;100939.09;;;23.10;47.43
58698;BME280;44475;53.206;-6.106;2023-03-20T12:56:15;100928.69;;;23.04;47.42
58698;BME280;44475;53.206;-6.106;2023-03-20T12:58:46;100931.81;;;22.99;47.99
58698;BME280;44475;53.206;-6.106;2023-03-20T13:01:21;100933.56;;;23.00;47.63
58698;BME280;44475;53.206;-6.106;2023-03-20T13:06:59;100933.28;;;23.03;47.86
58698;BME280;44475;53.206;-6.106;2023-03-20T13:21:41;100910.94;;;22.98;47.69
58698;BME280;44475;53.206;-6.106;2023-03-20T13:38:36;100883.81;;;23.06;47.38
58698;BME280;44475;53.206;-6.106;2023-03-20T13:41:07;100872.75;;;23.08;47.43
58698;BME280;44475;53.206;-6.106;2023-03-20T13:43:36;100876.63;;;23.05;47.30
58698;BME280;44475;53.206;-6.106;2023-03-20T13:46:26;100878.78;;;23.02;47.67
58698;BME280;44475;53.206;-6.106;2023-03-20T13:49:01;100876.03;;;23.02;47.66
58698;BME280;44475;53.206;-6.106;2023-03-20T14:05:17;100842.25;;;23.03;47.28
58698;BME280;44475;53.206;-6.106;2023-03-20T14:07:46;100848.03;;;23.09;47.30
58698;BME280;44475;53.206;-6.106;2023-03-20T14:13:13;100834.06;;;23.03;47.46
58698;BME280;44475;53.206;-6.106;2023-03-20T14:15:55;100828.66;;;22.91;47.86
58698;BME280;44475;53.206;-6.106;2023-03-20T14:18:24;100833.31;;;23.01;47.80
58698;BME280;44475;53.206;-6.106;2023-03-20T14:20:54;100816.09;;;23.10;47.74
58698;BME280;44475;53.206;-6.106;2023-03-20T14:23:36;100818.19;;;22.96;47.83
58698;BME280;44475;53.206;-6.106;2023-03-20T14:26:38;100812.44;;;22.99;47.71
58698;BME280;44475;53.206;-6.106;2023-03-20T14:31:40;100815.50;;;23.06;47.45
58698;BME280;44475;53.206;-6.106;2023-03-20T14:39:56;100815.75;;;22.93;48.09
58698;BME280;44475;53.206;-6.106;2023-03-20T14:45:59;100792.31;;;23.01;47.66
58698;BME280;44475;53.206;-6.106;2023-03-20T14:48:36;100784.03;;;23.12;47.28
58698;BME280;44475;53.206;-6.106;2023-03-20T14:53:57;100799.91;;;22.97;47.69
58698;BME280;44475;53.206;-6.106;2023-03-20T14:56:33;100799.19;;;22.95;47.88
58698;BME280;44475;53.206;-6.106;2023-03-20T14:59:05;100794.69;;;23.15;47.17
58698;BME280;44475;53.206;-6.106;2023-03-20T15:06:54;100780.56;;;23.10;47.56
58698;BME280;44475;53.206;-6.106;2023-03-20T15:09:23;100777.16;;;23.18;47.25
58698;BME280;44475;53.206;-6.106;2023-03-20T15:11:51;100781.00;;;23.15;47.33
58698;BME280;44475;53.206;-6.106;2023-03-20T15:14:26;100777.47;;;23.25;47.12
58698;BME280;44475;53.206;-6.106;2023-03-20T15:16:59;100778.63;;;23.22;47.37
58698;BME280;44475;53.206;-6.106;2023-03-20T15:19:27;100783.69;;;23.05;47.53
58698;BME280;44475;53.206;-6.106;2023-03-20T15:21:54;100786.16;;;23.08;47.31
58698;BME280;44475;53.206;-6.106;2023-03-20T15:24:27;100779.63;;;23.21;47.06
58698;BME280;44475;53.206;-6.106;2023-03-20T15:26:58;100777.97;;;23.08;47.19
58698;BME280;44475;53.206;-6.106;2023-03-20T15:29:29;100768.91;;;23.08;47.40
58698;BME280;44475;53.206;-6.106;2023-03-20T15:31:57;100765.03;;;23.11;47.48
58698;BME280;44475;53.206;-6.106;2023-03-20T15:34:32;100766.25;;;22.96;47.64
58698;BME280;44475;53.206;-6.106;2023-03-20T15:37:00;100768.91;;;23.08;47.27
58698;BME280;44475;53.206;-6.106;2023-03-20T15:39:42;100767.03;;;23.08;47.50
58698;BME280;44475;53.206;-6.106;2023-03-20T15:42:20;100769.25;;;23.15;47.51
58698;BME280;44475;53.206;-6.106;2023-03-20T15:44:50;100757.63;;;23.23;46.77
58698;BME280;44475;53.206;-6.106;2023-03-20T15:47:24;100756.00;;;23.20;46.92
58698;BME280;44475;53.206;-6.106;2023-03-20T15:49:55;100754.41;;;23.17;46.84
58698;BME280;44475;53.206;-6.106;2023-03-20T15:52:49;100753.41;;;23.18;47.14
58698;BME280;44475;53.206;-6.106;2023-03-20T15:55:20;100742.06;;;23.13;47.10